createdAt,value
2018-03-31T00:01:43.210Z,99.90
2018-03-31T00:04:11.009Z,99.90
2018-03-31T00:06:37.970Z,99.90
2018-03-31T00:09:04.975Z,99.90
2018-03-31T00:11:32.702Z,99.90
2018-03-31T00:13:59.727Z,99.90
2018-03-31T00:16:26.685Z,99.90
2018-03-31T00:18:53.656Z,99.90
2018-03-31T00:21:20.681Z,99.90
2018-03-31T00:23:47.662Z,99.90
2018-03-31T00:26:15.424Z,99.90
2018-03-31T00:28:43.154Z,99.90
2018-03-31T00:31:10.230Z,99.90
2018-03-31T00:33:37.962Z,99.90
2018-03-31T00:36:05.018Z,99.90
2018-03-31T00:38:31.984Z,99.90
2018-03-31T00:40:58.959Z,99.90
2018-03-31T00:43:25.949Z,99.90
2018-03-31T00:45:52.975Z,99.90
2018-03-31T00:48:19.954Z,99.90
2018-03-31T00:50:47.011Z,99.90
2018-03-31T00:53:13.968Z,99.90
2018-03-31T00:55:41.698Z,99.90
2018-03-31T00:58:08.680Z,99.90
2018-03-31T01:00:36.453Z,99.90
2018-03-31T01:03:04.277Z,99.90
2018-03-31T01:05:31.240Z,99.90
2018-03-31T01:07:58.237Z,99.90
2018-03-31T01:10:26.017Z,99.90
2018-03-31T01:12:52.985Z,99.90
2018-03-31T01:15:19.951Z,99.90
2018-03-31T01:17:46.939Z,99.90
2018-03-31T01:20:13.914Z,99.90
2018-03-31T01:22:40.908Z,99.90
2018-03-31T01:25:08.653Z,99.90
2018-03-31T01:27:36.413Z,99.90
2018-03-31T01:30:03.377Z,99.90
2018-03-31T01:32:31.130Z,99.90
2018-03-31T01:34:58.861Z,99.90
2018-03-31T01:37:25.924Z,99.90
2018-03-31T01:39:53.675Z,99.90
2018-03-31T01:42:20.665Z,99.90
2018-03-31T01:44:48.519Z,99.90
2018-03-31T01:47:16.382Z,99.90
2018-03-31T01:49:44.140Z,99.90
2018-03-31T01:52:11.098Z,99.90
2018-03-31T01:54:38.848Z,99.90
2018-03-31T01:57:05.826Z,99.90
2018-03-31T01:59:32.815Z,99.90
2018-03-31T02:01:59.782Z,99.90
2018-03-31T02:04:26.773Z,99.90
2018-03-31T02:06:53.776Z,99.90
2018-03-31T02:09:20.775Z,99.90
2018-03-31T02:11:47.732Z,99.90
2018-03-31T02:14:14.708Z,99.90
2018-03-31T02:16:42.134Z,99.90
2018-03-31T02:19:09.183Z,99.90
2018-03-31T02:21:36.150Z,99.90
2018-03-31T02:24:03.116Z,99.90
2018-03-31T02:26:30.090Z,99.90
2018-03-31T02:28:57.050Z,99.90
2018-03-31T02:31:24.063Z,99.90
2018-03-31T02:33:51.025Z,99.90
2018-03-31T02:36:18.774Z,99.90
2018-03-31T02:38:46.497Z,99.90
2018-03-31T02:41:13.490Z,99.90
2018-03-31T02:43:41.249Z,99.90
2018-03-31T02:46:08.980Z,99.90
2018-03-31T02:48:35.968Z,99.90
2018-03-31T02:51:03.722Z,99.90
2018-03-31T02:53:30.688Z,99.90
2018-03-31T02:55:57.698Z,99.90
2018-03-31T02:58:24.658Z,99.90
2018-03-31T03:00:52.415Z,99.90
2018-03-31T03:03:19.389Z,99.90
2018-03-31T03:05:47.137Z,99.90
2018-03-31T03:08:14.114Z,99.90
2018-03-31T03:10:41.095Z,99.90
2018-03-31T03:13:08.066Z,99.90
2018-03-31T03:15:35.057Z,99.90
2018-03-31T03:18:02.207Z,99.90
2018-03-31T03:20:29.213Z,99.90
2018-03-31T03:22:57.062Z,99.90
2018-03-31T03:25:24.034Z,99.90
2018-03-31T03:27:51.865Z,99.90
2018-03-31T03:30:18.866Z,99.90
2018-03-31T03:32:45.833Z,99.90
2018-03-31T03:35:12.818Z,99.90
2018-03-31T03:37:39.778Z,99.90
2018-03-31T03:40:07.526Z,99.90
2018-03-31T03:42:34.502Z,99.90
2018-03-31T03:45:02.253Z,99.90
2018-03-31T03:47:29.218Z,99.90
2018-03-31T03:49:56.223Z,99.90
2018-03-31T03:52:23.189Z,99.90
2018-03-31T03:54:50.170Z,99.90
2018-03-31T03:57:17.137Z,99.90
2018-03-31T03:59:44.133Z,99.90
2018-03-31T04:02:11.862Z,99.90
2018-03-31T04:04:38.842Z,99.90
2018-03-31T04:07:06.580Z,99.90
2018-03-31T04:09:33.567Z,99.90
2018-03-31T04:12:00.533Z,99.90
2018-03-31T04:14:27.523Z,99.90
2018-03-31T04:16:54.514Z,99.90
2018-03-31T04:19:21.478Z,99.90
2018-03-31T04:21:48.462Z,99.90
2018-03-31T04:24:15.430Z,99.90
2018-03-31T04:26:43.177Z,99.90
2018-03-31T04:29:10.145Z,99.90
2018-03-31T04:31:37.902Z,99.90
2018-03-31T04:34:05.650Z,99.90
2018-03-31T04:36:32.610Z,99.90
2018-03-31T04:39:00.369Z,99.90
2018-03-31T04:41:27.321Z,99.90
2018-03-31T04:43:55.179Z,99.90
2018-03-31T04:46:22.152Z,99.90
2018-03-31T04:48:49.133Z,99.90
2018-03-31T04:51:16.094Z,99.90
2018-03-31T04:53:43.081Z,99.90
2018-03-31T04:56:10.802Z,99.90
2018-03-31T04:58:37.797Z,99.90
2018-03-31T05:01:05.524Z,99.90
2018-03-31T05:03:32.530Z,99.90
2018-03-31T05:05:59.487Z,99.90
2018-03-31T05:08:26.486Z,99.90
2018-03-31T05:10:54.210Z,99.90
2018-03-31T05:13:21.195Z,99.90
2018-03-31T05:15:48.965Z,99.90
2018-03-31T05:18:16.697Z,99.90
2018-03-31T05:20:43.662Z,99.90
2018-03-31T05:23:11.424Z,99.90
2018-03-31T05:25:38.412Z,99.90
2018-03-31T05:28:05.409Z,99.90
2018-03-31T05:30:32.365Z,99.90
2018-03-31T05:33:00.124Z,99.90
2018-03-31T05:35:27.080Z,99.90
2018-03-31T05:37:54.926Z,99.90
2018-03-31T05:40:21.887Z,99.90
2018-03-31T05:42:49.637Z,99.90
2018-03-31T05:45:16.598Z,99.90
2018-03-31T05:47:44.370Z,99.90
2018-03-31T05:50:12.104Z,99.90
2018-03-31T05:52:39.103Z,99.90
2018-03-31T05:55:06.062Z,99.90
2018-03-31T05:57:33.028Z,99.90
2018-03-31T06:00:00.032Z,99.90
2018-03-31T06:02:27.757Z,99.90
2018-03-31T06:04:54.753Z,99.90
2018-03-31T06:07:21.711Z,99.90
2018-03-31T06:09:48.698Z,99.90
2018-03-31T06:12:15.745Z,99.90
2018-03-31T06:14:42.744Z,99.90
2018-03-31T06:17:09.706Z,99.90
2018-03-31T06:19:36.695Z,99.90
2018-03-31T06:22:03.687Z,99.90
2018-03-31T06:24:30.674Z,99.90
2018-03-31T06:26:57.693Z,99.90
2018-03-31T06:29:24.669Z,99.90
2018-03-31T06:31:51.710Z,99.90
2018-03-31T06:34:18.763Z,99.90
2018-03-31T06:36:45.759Z,99.90
2018-03-31T06:39:12.746Z,99.90
2018-03-31T06:41:39.713Z,99.90
2018-03-31T06:44:06.684Z,99.90
2018-03-31T06:46:33.690Z,99.90
2018-03-31T06:49:00.686Z,99.90
2018-03-31T06:51:27.696Z,99.90
2018-03-31T06:53:55.426Z,99.90
2018-03-31T06:56:22.397Z,99.90
2018-03-31T06:58:49.391Z,99.90
2018-03-31T07:01:16.347Z,99.90
2018-03-31T07:03:43.325Z,99.90
2018-03-31T07:06:10.306Z,99.90
2018-03-31T07:08:38.057Z,99.90
2018-03-31T07:11:05.034Z,99.90
2018-03-31T07:13:32.769Z,99.90
2018-03-31T07:16:00.513Z,99.90
2018-03-31T07:18:27.517Z,99.90
2018-03-31T07:20:54.493Z,99.90
2018-03-31T07:23:21.487Z,99.90
2018-03-31T07:25:49.326Z,99.90
2018-03-31T07:28:16.335Z,99.90
2018-03-31T07:30:43.319Z,99.90
2018-03-31T07:33:10.296Z,99.90
2018-03-31T07:35:38.062Z,99.90
2018-03-31T07:38:05.820Z,99.90
2018-03-31T07:40:33.555Z,99.90
2018-03-31T07:43:00.521Z,99.90
2018-03-31T07:45:28.293Z,99.90
2018-03-31T07:47:56.026Z,99.90
2018-03-31T07:50:23.012Z,99.90
2018-03-31T07:52:49.993Z,99.90
2018-03-31T07:55:16.977Z,99.90
2018-03-31T07:57:44.756Z,99.90
2018-03-31T08:00:12.560Z,99.90
2018-03-31T08:02:39.530Z,99.90
2018-03-31T08:05:08.030Z,99.90
2018-03-31T08:07:34.996Z,99.90
2018-03-31T08:10:02.896Z,99.90
2018-03-31T08:12:30.588Z,99.90
2018-03-31T08:14:57.596Z,99.90
2018-03-31T08:17:24.570Z,99.90
2018-03-31T08:19:51.558Z,99.90
2018-03-31T08:22:19.327Z,99.90
2018-03-31T08:24:47.059Z,99.90
2018-03-31T08:27:14.047Z,99.90
2018-03-31T08:29:41.026Z,99.90
2018-03-31T08:32:08.058Z,99.90
2018-03-31T08:34:35.030Z,99.40
2018-03-31T08:37:02.036Z,99.60
2018-03-31T08:39:29.073Z,99.50
2018-03-31T08:41:56.818Z,99.20
2018-03-31T08:44:23.866Z,99.20
2018-03-31T08:46:50.863Z,99.70
2018-03-31T08:49:17.867Z,99.10
2018-03-31T08:51:45.603Z,98.20
2018-03-31T08:54:12.619Z,97.90
2018-03-31T08:56:39.601Z,98.20
2018-03-31T08:59:06.623Z,98.50
2018-03-31T09:01:33.595Z,97.90
2018-03-31T09:04:00.613Z,98.10
2018-03-31T09:06:27.583Z,97.30
2018-03-31T09:08:54.589Z,96.90
2018-03-31T09:11:21.576Z,97.00
2018-03-31T09:13:48.589Z,95.80
2018-03-31T09:16:15.582Z,96.20
2018-03-31T09:18:42.551Z,96.30
2018-03-31T09:21:10.336Z,94.90
2018-03-31T09:23:37.303Z,94.90
2018-03-31T09:26:04.307Z,94.30
2018-03-31T09:28:32.076Z,94.80
2018-03-31T09:30:59.830Z,94.90
2018-03-31T09:33:27.572Z,94.80
2018-03-31T09:35:54.569Z,94.70
2018-03-31T09:38:21.577Z,95.10
2018-03-31T09:40:48.562Z,94.20
2018-03-31T09:43:15.591Z,94.90
2018-03-31T09:45:43.318Z,94.90
2018-03-31T09:48:10.348Z,94.90
2018-03-31T09:50:37.305Z,94.60
2018-03-31T09:53:04.326Z,94.10
2018-03-31T09:55:31.308Z,94.50
2018-03-31T09:57:58.310Z,94.10
2018-03-31T10:00:35.276Z,94.60
2018-03-31T10:03:02.282Z,94.40
2018-03-31T10:05:29.267Z,94.30
2018-03-31T10:07:56.290Z,93.20
2018-03-31T10:10:23.351Z,92.80
2018-03-31T10:12:50.327Z,93.00
2018-03-31T10:15:17.350Z,93.20
2018-03-31T10:17:45.087Z,91.70
2018-03-31T10:20:12.078Z,91.70
2018-03-31T10:22:39.129Z,90.50
2018-03-31T10:25:06.863Z,90.30
2018-03-31T10:27:33.843Z,90.30
2018-03-31T10:30:00.887Z,89.50
2018-03-31T10:32:27.880Z,89.40
2018-03-31T10:34:54.886Z,90.90
2018-03-31T10:37:21.895Z,89.60
2018-03-31T10:39:49.645Z,83.90
2018-03-31T10:42:16.635Z,83.90
2018-03-31T10:44:43.673Z,81.80
2018-03-31T10:47:11.413Z,81.90
2018-03-31T10:49:38.416Z,81.90
2018-03-31T10:52:05.450Z,81.10
2018-03-31T10:54:32.463Z,82.80
2018-03-31T10:57:00.237Z,79.60
2018-03-31T10:59:27.978Z,77.70
2018-03-31T11:01:54.970Z,77.60
2018-03-31T11:04:21.938Z,75.30
2018-03-31T11:06:48.964Z,75.50
2018-03-31T11:09:15.944Z,73.90
2018-03-31T11:11:42.958Z,73.60
2018-03-31T11:14:09.959Z,73.10
2018-03-31T11:16:38.844Z,67.80
2018-03-31T11:19:06.011Z,67.70
2018-03-31T11:21:33.774Z,73.70
2018-03-31T11:24:01.513Z,73.50
2018-03-31T11:26:28.519Z,73.50
2018-03-31T11:28:55.493Z,73.90
2018-03-31T11:31:22.491Z,70.50
2018-03-31T11:33:50.228Z,67.50
2018-03-31T11:36:17.216Z,67.50
2018-03-31T11:38:44.367Z,68.50
2018-03-31T11:41:11.346Z,69.40
2018-03-31T11:43:38.400Z,68.80
2018-03-31T11:46:05.386Z,68.80
2018-03-31T11:48:33.189Z,70.70
2018-03-31T11:51:00.160Z,70.70
2018-03-31T11:53:27.156Z,72.20
2018-03-31T11:55:54.146Z,71.20
2018-03-31T11:58:21.150Z,69.50
2018-03-31T12:00:48.113Z,69.80
2018-03-31T12:03:15.162Z,67.30
2018-03-31T12:05:42.172Z,65.70
2018-03-31T12:08:09.990Z,64.70
2018-03-31T12:10:37.026Z,64.70
2018-03-31T12:13:04.012Z,62.60
2018-03-31T12:15:35.409Z,60.80
2018-03-31T12:18:03.512Z,58.50
2018-03-31T12:20:30.568Z,59.10
2018-03-31T12:22:57.560Z,60.70
2018-03-31T12:25:25.698Z,53.80
2018-03-31T12:27:52.677Z,54.40
2018-03-31T12:30:20.817Z,50.20
2018-03-31T12:32:47.794Z,51.30
2018-03-31T12:35:15.526Z,46.70
2018-03-31T12:37:43.683Z,46.00
2018-03-31T12:40:10.674Z,46.50
2018-03-31T12:42:38.461Z,43.90
2018-03-31T12:45:05.506Z,43.90
2018-03-31T12:47:32.504Z,44.60
2018-03-31T12:49:59.530Z,45.20
2018-03-31T12:52:26.504Z,48.20
2018-03-31T12:54:53.476Z,50.00
2018-03-31T12:57:21.230Z,56.20
2018-03-31T12:59:48.966Z,53.70
2018-03-31T13:02:15.999Z,53.70
2018-03-31T13:04:43.694Z,54.00
2018-03-31T13:07:10.658Z,54.10
2018-03-31T13:09:38.430Z,54.80
2018-03-31T13:12:05.473Z,54.70
2018-03-31T13:14:33.257Z,53.00
2018-03-31T13:17:01.400Z,44.30
2018-03-31T13:19:29.164Z,35.50
2018-03-31T13:21:56.922Z,31.10
2018-03-31T13:24:23.921Z,31.10
2018-03-31T13:26:50.898Z,27.10
2018-03-31T13:29:19.043Z,24.80
2018-03-31T13:31:46.057Z,25.20
2018-03-31T13:34:13.805Z,34.10
2018-03-31T13:36:41.564Z,38.20
2018-03-31T13:39:08.550Z,38.20
2018-03-31T13:41:35.551Z,43.20
2018-03-31T13:44:02.530Z,44.90
2018-03-31T13:46:29.519Z,48.20
2018-03-31T13:48:56.479Z,49.30
2018-03-31T13:51:23.513Z,47.70
2018-03-31T13:53:50.502Z,48.00
2018-03-31T13:56:18.224Z,29.80
2018-03-31T13:58:45.239Z,30.20
2018-03-31T14:01:12.231Z,24.20
2018-03-31T14:03:39.209Z,22.70
2018-03-31T14:08:34.813Z,20.80
2018-03-31T14:11:01.790Z,19.30
2018-03-31T14:13:28.779Z,19.40
2018-03-31T14:15:55.744Z,20.10
2018-03-31T14:18:22.754Z,18.40
2018-03-31T14:20:49.785Z,17.90
2018-03-31T14:25:45.342Z,16.10
2018-03-31T14:28:12.373Z,16.20
2018-03-31T14:30:39.385Z,15.20
2018-03-31T14:33:07.166Z,15.70
2018-03-31T14:35:34.938Z,16.30
2018-03-31T14:38:01.909Z,15.60
2018-03-31T14:40:30.070Z,13.80
2018-03-31T14:42:57.039Z,14.30
2018-03-31T14:45:24.050Z,14.10
2018-03-31T14:47:51.038Z,14.00
2018-03-31T14:50:18.006Z,13.60
2018-03-31T14:52:45.644Z,14.30
2018-03-31T14:55:12.966Z,15.60
2018-03-31T14:57:39.969Z,18.60
2018-03-31T15:00:06.937Z,18.70
2018-03-31T15:02:34.703Z,20.50
2018-03-31T15:05:02.714Z,20.40
2018-03-31T15:07:29.684Z,18.70
2018-03-31T15:09:56.695Z,17.20
2018-03-31T15:12:23.753Z,16.50
2018-03-31T15:14:50.758Z,16.20
2018-03-31T15:17:18.539Z,18.50
2018-03-31T15:19:45.524Z,18.50
2018-03-31T15:22:12.523Z,18.50
2018-03-31T15:24:39.483Z,20.10
2018-03-31T15:27:06.496Z,20.50
2018-03-31T15:29:34.405Z,20.10
2018-03-31T15:32:01.398Z,19.50
2018-03-31T15:34:28.403Z,19.00
2018-03-31T15:36:55.385Z,19.80
2018-03-31T15:39:22.399Z,21.80
2018-03-31T15:41:49.371Z,22.80
2018-03-31T15:44:16.388Z,23.30
2018-03-31T15:46:43.364Z,27.10
2018-03-31T15:49:10.364Z,30.30
2018-03-31T15:51:37.395Z,34.50
2018-03-31T15:54:05.150Z,39.50
2018-03-31T15:56:32.910Z,39.80
2018-03-31T15:59:00.678Z,38.70
2018-03-31T16:01:28.450Z,35.60
2018-03-31T16:03:56.182Z,32.20
2018-03-31T16:06:23.194Z,32.10
2018-03-31T16:08:50.182Z,28.80
2018-03-31T16:11:17.250Z,28.50
2018-03-31T16:13:45.008Z,28.60
2018-03-31T16:16:12.776Z,27.90
2018-03-31T16:18:40.574Z,28.10
2018-03-31T16:21:07.553Z,28.00
2018-03-31T16:23:34.560Z,27.20
2018-03-31T16:26:01.534Z,26.40
2018-03-31T16:28:28.578Z,28.20
2018-03-31T16:30:55.560Z,30.00
2018-03-31T16:33:22.591Z,30.70
2018-03-31T16:35:49.583Z,28.80
2018-03-31T16:38:16.584Z,28.90
2018-03-31T16:40:43.588Z,29.50
2018-03-31T16:43:10.569Z,30.60
2018-03-31T16:45:37.592Z,33.60
2018-03-31T16:48:05.676Z,36.40
2018-03-31T16:50:32.662Z,39.10
2018-03-31T16:52:59.670Z,41.30
2018-03-31T16:55:26.670Z,44.10
2018-03-31T16:57:54.448Z,49.10
2018-03-31T17:00:21.446Z,49.10
2018-03-31T17:02:48.449Z,49.80
2018-03-31T17:05:15.424Z,51.60
2018-03-31T17:07:42.425Z,53.60
2018-03-31T17:10:09.419Z,53.60
2018-03-31T17:12:36.450Z,53.60
2018-03-31T17:15:03.430Z,55.40
2018-03-31T17:17:30.455Z,56.10
2018-03-31T17:19:57.438Z,56.80
2018-03-31T17:22:24.431Z,57.70
2018-03-31T17:24:51.440Z,59.00
2018-03-31T17:27:19.182Z,60.50
2018-03-31T17:29:46.190Z,59.70
2018-03-31T17:32:13.167Z,60.90
2018-03-31T17:34:40.258Z,61.90
2018-03-31T17:37:07.263Z,63.30
2018-03-31T17:39:34.259Z,64.10
2018-03-31T17:42:01.338Z,65.40
2018-03-31T17:44:29.191Z,66.60
2018-03-31T17:46:56.210Z,66.60
2018-03-31T17:49:23.970Z,68.20
2018-03-31T17:51:51.730Z,69.30
2018-03-31T17:54:19.479Z,69.40
2018-03-31T17:56:46.508Z,69.30
2018-03-31T17:59:13.503Z,70.50
2018-03-31T18:01:41.276Z,71.60
2018-03-31T18:04:08.253Z,71.60
2018-03-31T18:06:35.266Z,72.10
2018-03-31T18:09:02.257Z,72.40
2018-03-31T18:11:29.293Z,73.40
2018-03-31T18:13:56.286Z,73.80
2018-03-31T18:16:23.576Z,74.30
2018-03-31T18:18:50.565Z,75.10
2018-03-31T18:21:17.556Z,75.40
2018-03-31T18:23:44.608Z,76.10
2018-03-31T18:26:11.641Z,76.40
2018-03-31T18:28:39.381Z,77.40
2018-03-31T18:31:06.415Z,77.40
2018-03-31T18:33:33.396Z,77.70
2018-03-31T18:36:01.182Z,78.80
2018-03-31T18:38:28.160Z,78.80
2018-03-31T18:40:55.154Z,79.40
2018-03-31T18:43:22.933Z,81.30
2018-03-31T18:45:49.942Z,81.30
2018-03-31T18:48:16.946Z,81.40
2018-03-31T18:50:43.935Z,82.00
2018-03-31T18:53:10.986Z,82.70
2018-03-31T18:55:37.971Z,82.70
2018-03-31T18:58:04.998Z,82.70
2018-03-31T19:00:32.767Z,83.00
2018-03-31T19:03:00.503Z,83.50
2018-03-31T19:05:28.335Z,83.60
2018-03-31T19:07:55.455Z,83.60
2018-03-31T19:10:22.620Z,83.70
2018-03-31T19:12:50.145Z,84.10
2018-03-31T19:15:17.642Z,84.40
2018-03-31T19:17:44.631Z,85.10
2018-03-31T19:20:18.244Z,84.60
2018-03-31T19:22:45.235Z,85.00
2018-03-31T19:25:17.899Z,85.30
2018-03-31T19:27:44.894Z,85.30
2018-03-31T19:30:11.966Z,85.60
2018-03-31T19:32:39.762Z,85.40
2018-03-31T19:35:06.782Z,85.40
2018-03-31T19:37:34.543Z,86.00
2018-03-31T19:40:02.306Z,86.10
2018-03-31T19:42:29.316Z,86.10
2018-03-31T19:44:56.350Z,86.50
2018-03-31T19:47:23.361Z,86.70
2018-03-31T19:49:51.129Z,86.90
2018-03-31T19:52:18.925Z,87.00
2018-03-31T19:54:45.932Z,87.00
2018-03-31T19:57:13.716Z,87.30
2018-03-31T19:59:40.716Z,87.30
2018-03-31T20:02:07.822Z,87.90
2018-03-31T20:04:35.008Z,87.90
2018-03-31T20:07:02.095Z,88.10
2018-03-31T20:09:29.835Z,88.80
2018-03-31T20:11:56.869Z,88.10
2018-03-31T20:14:23.868Z,87.70
2018-03-31T20:16:50.878Z,87.50
2018-03-31T20:19:17.875Z,87.70
2018-03-31T20:21:44.865Z,87.30
2018-03-31T20:24:11.883Z,87.00
2018-03-31T20:26:38.872Z,86.90
2018-03-31T20:29:05.869Z,86.80
2018-03-31T20:31:32.868Z,86.60
2018-03-31T20:34:00.665Z,86.10
2018-03-31T20:36:27.662Z,86.70
2018-03-31T20:38:54.673Z,86.10
2018-03-31T20:41:21.654Z,86.00
2018-03-31T20:43:48.679Z,85.60
2018-03-31T20:46:15.688Z,85.30
2018-03-31T20:48:43.438Z,84.60
2018-03-31T20:51:11.196Z,84.40
2018-03-31T20:53:39.017Z,84.30
2018-03-31T20:56:06.718Z,84.30
2018-03-31T20:58:33.696Z,84.20
2018-03-31T21:01:00.692Z,84.00
2018-03-31T21:03:27.683Z,84.00
2018-03-31T21:05:55.449Z,82.70
2018-03-31T21:08:22.434Z,82.70
2018-03-31T21:10:49.428Z,81.90
2018-03-31T21:13:17.181Z,80.50
2018-03-31T21:15:44.175Z,80.40
2018-03-31T21:18:11.160Z,79.80
2018-03-31T21:20:38.166Z,79.50
2018-03-31T21:23:05.179Z,79.30
2018-03-31T21:25:32.179Z,79.40
2018-03-31T21:27:59.186Z,79.40
2018-03-31T21:30:26.181Z,78.50
2018-03-31T21:32:53.253Z,78.40
2018-03-31T21:35:21.036Z,78.70
2018-03-31T21:37:48.811Z,78.00
2018-03-31T21:40:15.833Z,77.90
2018-03-31T21:42:42.840Z,78.30
2018-03-31T21:45:09.846Z,77.50
2018-03-31T21:47:37.604Z,77.30
2018-03-31T21:50:05.413Z,76.80
2018-03-31T21:52:32.406Z,76.70
2018-03-31T21:55:00.185Z,77.10
2018-03-31T21:57:27.916Z,78.00
2018-03-31T21:59:54.950Z,77.90
2018-03-31T22:02:21.971Z,78.50
2018-03-31T22:04:48.990Z,78.90
2018-03-31T22:07:16.771Z,79.30
2018-03-31T22:09:44.467Z,79.00
2018-03-31T22:12:11.484Z,79.00
2018-03-31T22:14:44.247Z,79.30
2018-03-31T22:17:12.003Z,79.10
2018-03-31T22:19:39.768Z,79.10
2018-03-31T22:22:07.531Z,78.60
2018-03-31T22:24:35.263Z,78.40
2018-03-31T22:27:02.273Z,78.40
2018-03-31T22:29:29.240Z,77.90
2018-03-31T22:31:56.257Z,78.10
2018-03-31T22:34:23.227Z,78.00
2018-03-31T22:36:50.240Z,77.70
2018-03-31T22:39:17.979Z,78.10
2018-03-31T22:41:44.970Z,78.10
2018-03-31T22:44:11.947Z,78.60
2018-03-31T22:46:38.939Z,79.40
2018-03-31T22:49:06.725Z,80.30
2018-03-31T22:51:33.697Z,80.30
2018-03-31T22:54:00.717Z,80.80
2018-03-31T22:56:27.704Z,81.30
2018-03-31T22:58:54.725Z,81.70
2018-03-31T23:01:21.702Z,81.80
2018-03-31T23:03:48.720Z,81.70
2018-03-31T23:06:15.677Z,81.30
2018-03-31T23:08:42.646Z,81.10
2018-03-31T23:11:09.642Z,81.30
2018-03-31T23:13:36.606Z,81.80
2018-03-31T23:16:03.617Z,82.10
2018-03-31T23:18:30.598Z,82.50
2018-03-31T23:20:57.603Z,83.30
2018-03-31T23:23:24.569Z,84.10
2018-03-31T23:25:51.590Z,84.90
2018-03-31T23:28:19.497Z,86.20
2018-03-31T23:30:46.493Z,86.20
2018-03-31T23:33:13.471Z,86.50
2018-03-31T23:35:40.457Z,88.30
2018-03-31T23:38:07.425Z,88.20
2018-03-31T23:40:34.391Z,88.70
2018-03-31T23:43:02.167Z,89.60
2018-03-31T23:45:29.129Z,89.60
2018-03-31T23:47:56.125Z,90.00
2018-03-31T23:50:23.096Z,90.30
2018-03-31T23:52:50.965Z,90.90
2018-03-31T23:55:18.701Z,91.20
2018-03-31T23:57:45.684Z,91.20
